Time;durP1;ratioP1;P1;durP2;ratioP2;P2;SDS_P1;SDS_P2;PMS_P1;PMS_P2;Temp;Humidity;BMP_temperature;BMP_pressure;BME280_temperature;BME280_humidity;BME280_pressure;Samples;Min_cycle;Max_cycle;Signal;HPM_P1;HPM_P2
2023/12/11 00:02:16;;;;;;;19.47;3.20;;;9.70;85.90;;;;;;5081464;28;20045;-79
2023/12/11 00:04:43;;;;;;;25.75;4.30;;;9.60;85.90;;;;;;5066540;28;20733;-79
2023/12/11 00:07:10;;;;;;;27.85;4.18;;;9.60;86.00;;;;;;5066181;28;20049;-79
2023/12/11 00:09:37;;;;;;;23.27;3.45;;;9.60;86.00;;;;;;5065128;28;20053;-79
2023/12/11 00:12:06;;;;;;;27.95;4.68;;;9.60;86.10;;;;;;5067292;28;20506;-79
2023/12/11 00:14:33;;;;;;;17.90;2.30;;;9.60;86.20;;;;;;5067165;28;20053;-79
2023/12/11 00:17:00;;;;;;;20.73;3.38;;;9.60;86.10;;;;;;5067477;28;20455;-79
2023/12/11 00:19:27;;;;;;;25.50;3.30;;;9.60;86.10;;;;;;5065806;28;20049;-79
2023/12/11 00:21:54;;;;;;;23.38;3.28;;;9.60;86.00;;;;;;5066967;28;20041;-79
2023/12/11 00:24:21;;;;;;;20.88;3.25;;;9.60;86.00;;;;;;5065981;28;20061;-79
2023/12/11 00:26:48;;;;;;;25.50;3.70;;;9.60;85.90;;;;;;5065633;28;20057;-79
2023/12/11 00:29:16;;;;;;;20.23;3.17;;;9.60;85.90;;;;;;5065768;28;20293;-79
2023/12/11 00:31:43;;;;;;;12.20;1.75;;;9.60;85.90;;;;;;5065362;28;20088;-79
2023/12/11 00:34:10;;;;;;;21.23;3.00;;;9.60;86.00;;;;;;5066453;28;20045;-79
2023/12/11 00:36:37;;;;;;;23.60;3.42;;;9.60;85.90;;;;;;5066113;28;20122;-79
2023/12/11 00:39:04;;;;;;;27.70;3.40;;;9.50;86.10;;;;;;5067364;28;20056;-79
2023/12/11 00:41:31;;;;;;;17.88;3.22;;;9.60;86.10;;;;;;5047503;28;20272;-79
2023/12/11 00:43:58;;;;;;;20.20;3.15;;;9.60;86.10;;;;;;5045847;28;20046;-79
2023/12/11 00:46:26;;;;;;;28.80;3.63;;;9.50;86.10;;;;;;5046767;28;20054;-79
2023/12/11 00:48:53;;;;;;;22.95;3.28;;;9.60;86.00;;;;;;5045511;28;20057;-79
2023/12/11 00:51:21;;;;;;;25.17;3.70;;;9.60;85.80;;;;;;5045316;28;20054;-79
2023/12/11 00:53:48;;;;;;;22.67;3.42;;;9.60;85.70;;;;;;5046916;28;20273;-79
2023/12/11 00:56:16;;;;;;;30.02;4.13;;;9.60;85.70;;;;;;5046852;28;20061;-79
2023/12/11 00:58:43;;;;;;;22.80;3.80;;;9.60;85.80;;;;;;5052330;28;20053;-79
2023/12/11 01:01:10;;;;;;;24.63;4.22;;;9.60;85.90;;;;;;5066480;28;20270;-79
2023/12/11 01:03:38;;;;;;;24.67;3.83;;;9.60;85.80;;;;;;5066368;28;20056;-79
2023/12/11 01:06:06;;;;;;;25.17;4.10;;;9.60;85.70;;;;;;5065138;28;20287;-79
2023/12/11 01:08:38;;;;;;;27.75;4.25;;;9.60;85.70;;;;;;5067303;28;20848;-79
2023/12/11 01:11:05;;;;;;;21.80;3.38;;;9.60;85.80;;;;;;5064809;28;20049;-79
2023/12/11 01:13:33;;;;;;;22.77;2.95;;;9.60;85.80;;;;;;5081958;28;20049;-79
2023/12/11 01:15:59;;;;;;;21.70;3.07;;;9.60;85.80;;;;;;5048295;28;20053;-79
2023/12/11 01:18:27;;;;;;;23.40;4.18;;;9.60;85.70;;;;;;5066927;28;20734;-79
2023/12/11 01:20:55;;;;;;;18.20;2.78;;;9.60;85.80;;;;;;5065164;28;20518;-79
2023/12/11 01:23:22;;;;;;;28.13;3.45;;;9.60;85.70;;;;;;5065148;28;20068;-79
2023/12/11 01:25:49;;;;;;;25.40;4.05;;;9.60;85.70;;;;;;5066752;28;20063;-79
2023/12/11 01:28:16;;;;;;;25.30;3.60;;;9.60;85.50;;;;;;5065029;28;20064;-79
2023/12/11 01:30:43;;;;;;;24.15;3.13;;;9.60;85.50;;;;;;5064324;28;20268;-79
2023/12/11 01:33:10;;;;;;;19.58;2.83;;;9.60;85.50;;;;;;5065521;28;20053;-79
2023/12/11 01:35:37;;;;;;;28.50;4.40;;;9.60;85.50;;;;;;5066830;28;20509;-79
2023/12/11 01:38:05;;;;;;;20.13;2.83;;;9.70;85.70;;;;;;5066277;28;20132;-79
2023/12/11 01:40:32;;;;;;;18.43;3.40;;;9.70;85.60;;;;;;5066589;28;20048;-79
2023/12/11 01:43:12;;;;;;;26.92;3.42;;;9.70;85.60;;;;;;5064610;28;20275;-79
2023/12/11 01:45:40;;;;;;;24.10;4.28;;;9.70;85.70;;;;;;5099812;27;20131;-79
2023/12/11 01:48:07;;;;;;;24.52;3.30;;;9.70;85.80;;;;;;5069993;28;20752;-79
2023/12/11 01:50:34;;;;;;;23.95;3.85;;;9.70;85.70;;;;;;5068014;28;20055;-79
2023/12/11 01:53:01;;;;;;;29.83;4.70;;;9.70;85.70;;;;;;5101684;27;20821;-79
2023/12/11 01:55:32;;;;;;;28.70;3.95;;;9.70;85.80;;;;;;5067849;28;20252;-79
2023/12/11 01:58:01;;;;;;;23.40;3.67;;;9.70;85.90;;;;;;5069526;28;20685;-79
2023/12/11 02:00:28;;;;;;;29.60;4.25;;;9.70;85.90;;;;;;5047649;28;20149;-79
2023/12/11 02:02:55;;;;;;;25.35;3.38;;;9.70;85.90;;;;;;5049060;28;20161;-79
2023/12/11 02:05:22;;;;;;;29.63;4.63;;;9.70;85.90;;;;;;5049589;28;20084;-79
2023/12/11 02:07:49;;;;;;;28.33;4.85;;;9.70;86.10;;;;;;5047906;28;20291;-79
2023/12/11 02:10:16;;;;;;;26.00;4.00;;;9.70;86.10;;;;;;5048480;28;20052;-79
2023/12/11 02:12:44;;;;;;;32.33;4.78;;;9.70;86.10;;;;;;5048916;28;20570;-79
2023/12/11 02:15:11;;;;;;;25.95;4.93;;;9.70;86.00;;;;;;5049060;28;20581;-79
2023/12/11 02:17:38;;;;;;;32.47;4.53;;;9.70;86.10;;;;;;5049183;28;20049;-79
2023/12/11 02:20:06;;;;;;;27.23;3.83;;;9.70;86.20;;;;;;5048033;28;20292;-79
2023/12/11 02:22:33;;;;;;;31.02;4.85;;;9.70;86.30;;;;;;5048800;28;20080;-79
2023/12/11 02:25:04;;;;;;;29.75;4.45;;;9.70;86.30;;;;;;5048983;28;20056;-79
2023/12/11 02:27:32;;;;;;;35.83;4.43;;;9.70;86.40;;;;;;5064350;28;20041;-79
2023/12/11 02:29:59;;;;;;;32.93;4.43;;;9.70;86.40;;;;;;5049201;28;20060;-79
2023/12/11 02:32:26;;;;;;;29.58;5.22;;;9.70;86.40;;;;;;5047461;28;20296;-79
2023/12/11 02:34:53;;;;;;;26.58;5.65;;;9.70;86.40;;;;;;5047401;28;20058;-79
2023/12/11 02:37:20;;;;;;;24.15;3.90;;;9.70;86.40;;;;;;5047678;28;20044;-79
2023/12/11 02:39:47;;;;;;;34.33;4.85;;;9.70;86.40;;;;;;5047397;28;20060;-79
2023/12/11 02:42:14;;;;;;;34.57;4.30;;;9.80;86.40;;;;;;5048191;28;20140;-79
2023/12/11 02:44:42;;;;;;;24.08;4.13;;;9.70;86.30;;;;;;5047667;28;20273;-79
2023/12/11 02:47:09;;;;;;;31.15;5.13;;;9.80;86.30;;;;;;5047203;28;20045;-79
2023/12/11 02:49:36;;;;;;;36.97;4.97;;;9.80;86.20;;;;;;5046878;28;20081;-79
2023/12/11 02:52:03;;;;;;;26.95;4.38;;;9.80;86.20;;;;;;5046514;28;20064;-79
2023/12/11 02:54:30;;;;;;;38.50;5.17;;;9.80;86.10;;;;;;5063885;28;20063;-79
2023/12/11 02:56:56;;;;;;;30.05;4.60;;;9.80;86.30;;;;;;5046159;28;20256;-79
2023/12/11 02:59:23;;;;;;;30.23;4.90;;;9.80;86.30;;;;;;5057950;28;20572;-79
2023/12/11 03:01:52;;;;;;;35.53;4.97;;;9.90;86.30;;;;;;5068245;28;20654;-79
2023/12/11 03:04:18;;;;;;;29.90;4.95;;;9.90;86.30;;;;;;5066733;28;20059;-79
2023/12/11 03:06:45;;;;;;;27.77;4.60;;;9.80;86.40;;;;;;5067096;28;20059;-79
2023/12/11 03:09:12;;;;;;;32.50;5.38;;;9.90;86.50;;;;;;5050394;28;20256;-79
2023/12/11 03:11:39;;;;;;;31.73;5.03;;;9.90;86.50;;;;;;5066638;28;20063;-79
2023/12/11 03:14:06;;;;;;;32.72;5.25;;;9.90;86.60;;;;;;5101381;28;20045;-79
2023/12/11 03:16:33;;;;;;;31.50;5.25;;;9.90;86.80;;;;;;5067168;28;20041;-79
2023/12/11 03:19:01;;;;;;;31.00;4.93;;;10.00;87.00;;;;;;5066426;28;20080;-80
2023/12/11 03:21:28;;;;;;;36.88;5.40;;;10.00;87.10;;;;;;5066669;28;20634;-79
2023/12/11 03:23:55;;;;;;;38.85;5.82;;;10.00;87.20;;;;;;5068328;28;20053;-79
2023/12/11 03:26:21;;;;;;;31.90;5.45;;;10.00;87.40;;;;;;5066930;28;20052;-79
2023/12/11 03:28:48;;;;;;;39.50;4.75;;;10.00;87.50;;;;;;5066599;28;20061;-79
2023/12/11 03:31:15;;;;;;;39.83;5.57;;;10.00;87.40;;;;;;5068277;28;20069;-79
2023/12/11 03:33:42;;;;;;;28.85;3.85;;;10.00;87.30;;;;;;5068026;28;20255;-79
2023/12/11 03:36:11;;;;;;;29.20;4.03;;;10.00;87.40;;;;;;5068230;28;20053;-79
2023/12/11 03:38:37;;;;;;;26.90;3.42;;;10.00;87.60;;;;;;5083247;28;20049;-79
2023/12/11 03:41:05;;;;;;;26.25;4.05;;;10.00;87.70;;;;;;5066059;28;20049;-79
2023/12/11 03:43:31;;;;;;;32.60;4.80;;;10.00;87.90;;;;;;5067784;28;20053;-79
2023/12/11 03:46:03;;;;;;;28.55;3.50;;;10.00;88.00;;;;;;5066560;28;20287;-79
2023/12/11 03:48:30;;;;;;;29.55;4.28;;;10.00;88.00;;;;;;5066339;28;20053;-79
2023/12/11 03:50:57;;;;;;;28.38;5.03;;;9.90;88.00;;;;;;5049211;28;20049;-79
2023/12/11 03:53:26;;;;;;;30.73;4.68;;;9.90;88.20;;;;;;5083438;28;20052;-79
2023/12/11 03:55:53;;;;;;;28.00;4.73;;;9.90;88.20;;;;;;5067605;28;20053;-79
2023/12/11 03:58:20;;;;;;;26.00;3.97;;;9.90;88.30;;;;;;5063654;28;20757;-79
2023/12/11 04:00:47;;;;;;;27.27;4.22;;;10.00;88.10;;;;;;5045818;28;20083;-79
2023/12/11 04:03:14;;;;;;;34.08;5.00;;;10.00;87.80;;;;;;5045659;28;20045;-79
2023/12/11 04:05:41;;;;;;;25.58;3.75;;;10.00;87.80;;;;;;5047670;28;20053;-79
2023/12/11 04:08:08;;;;;;;29.77;3.93;;;10.00;87.70;;;;;;5062372;28;20057;-78
2023/12/11 04:10:36;;;;;;;24.67;3.47;;;10.00;87.80;;;;;;5045184;28;20291;-78
2023/12/11 04:13:03;;;;;;;29.08;4.25;;;10.00;87.70;;;;;;5046823;28;20053;-78
2023/12/11 04:15:30;;;;;;;27.73;3.90;;;10.00;87.70;;;;;;5047290;28;20127;-79
2023/12/11 04:17:57;;;;;;;29.73;3.72;;;10.00;87.50;;;;;;5045854;28;20494;-79
2023/12/11 04:20:24;;;;;;;29.23;5.10;;;10.00;87.40;;;;;;5045562;28;20107;-79
2023/12/11 04:22:51;;;;;;;23.05;3.83;;;10.00;87.40;;;;;;5046311;28;20287;-79
2023/12/11 04:25:18;;;;;;;26.27;4.20;;;10.00;87.30;;;;;;5045669;28;20063;-78
2023/12/11 04:27:46;;;;;;;29.02;4.07;;;10.00;87.30;;;;;;5045338;28;20111;-78
2023/12/11 04:30:14;;;;;;;23.83;4.50;;;10.00;87.30;;;;;;5045832;28;20565;-79
2023/12/11 04:32:41;;;;;;;24.70;3.63;;;10.00;87.20;;;;;;5046773;28;20060;-79
2023/12/11 04:35:09;;;;;;;31.92;4.00;;;9.90;87.20;;;;;;5046877;28;20362;-78
2023/12/11 04:37:36;;;;;;;23.58;3.42;;;10.00;87.30;;;;;;5062208;28;20121;-79
2023/12/11 04:40:03;;;;;;;25.30;4.35;;;9.90;87.40;;;;;;5045380;28;20049;-78
2023/12/11 04:42:30;;;;;;;26.08;3.63;;;10.00;87.40;;;;;;5047055;28;20088;-78
2023/12/11 04:44:58;;;;;;;25.07;4.60;;;10.00;87.40;;;;;;5045844;28;20049;-78
2023/12/11 04:47:25;;;;;;;26.58;3.50;;;9.90;87.50;;;;;;5045910;28;20289;-79
2023/12/11 04:49:52;;;;;;;30.48;3.60;;;10.00;87.50;;;;;;5047253;28;20308;-78
2023/12/11 04:52:19;;;;;;;26.08;3.85;;;9.90;87.50;;;;;;5045607;28;20131;-78
2023/12/11 04:54:46;;;;;;;22.90;3.65;;;9.90;87.70;;;;;;5044997;28;20049;-78
2023/12/11 04:57:15;;;;;;;24.83;4.10;;;9.80;87.70;;;;;;5046966;28;20050;-78
2023/12/11 04:59:42;;;;;;;21.40;4.05;;;9.80;87.80;;;;;;5058914;28;20278;-78
2023/12/11 05:02:10;;;;;;;30.33;4.05;;;9.80;87.90;;;;;;5066487;28;20064;-78
2023/12/11 05:04:37;;;;;;;27.75;3.85;;;9.80;87.80;;;;;;5065511;28;20059;-78
2023/12/11 05:07:04;;;;;;;29.95;3.65;;;9.80;87.90;;;;;;5066568;28;20458;-78
2023/12/11 05:09:31;;;;;;;19.87;3.53;;;9.80;87.90;;;;;;5065209;28;20057;-78
2023/12/11 05:11:58;;;;;;;20.50;2.63;;;9.80;87.90;;;;;;5065126;28;20771;-78
2023/12/11 05:14:25;;;;;;;26.02;3.35;;;9.70;88.00;;;;;;5065521;28;20055;-78
2023/12/11 05:16:52;;;;;;;25.98;4.07;;;9.80;87.90;;;;;;5065054;28;20247;-78
2023/12/11 05:19:20;;;;;;;24.83;3.13;;;9.80;87.80;;;;;;5064981;28;20152;-78
2023/12/11 05:21:47;;;;;;;25.03;3.60;;;9.80;87.60;;;;;;5060535;28;20566;-78
2023/12/11 05:24:15;;;;;;;23.85;3.33;;;9.80;87.70;;;;;;5049295;28;20308;-79
2023/12/11 05:26:42;;;;;;;25.60;3.80;;;9.70;87.70;;;;;;5048400;28;20149;-78
2023/12/11 05:29:09;;;;;;;23.73;2.90;;;9.80;87.60;;;;;;5049955;28;20492;-78
2023/12/11 05:31:35;;;;;;;29.63;3.97;;;9.70;87.50;;;;;;5048589;28;20053;-78
2023/12/11 05:34:03;;;;;;;24.60;4.03;;;9.80;87.50;;;;;;5048210;28;20131;-78
2023/12/11 05:36:33;;;;;;;24.85;3.13;;;9.80;87.20;;;;;;5050143;28;20342;-78
2023/12/11 05:39:00;;;;;;;28.80;4.05;;;9.80;87.20;;;;;;5049751;28;20056;-78
2023/12/11 05:41:27;;;;;;;25.63;3.63;;;9.80;87.20;;;;;;5048613;28;20092;-78
2023/12/11 05:43:53;;;;;;;25.48;3.35;;;9.80;87.20;;;;;;5048406;28;20060;-78
2023/12/11 05:46:20;;;;;;;20.13;3.10;;;9.80;87.20;;;;;;5048193;28;20679;-78
2023/12/11 05:48:47;;;;;;;22.88;3.20;;;9.70;87.20;;;;;;5032016;28;20268;-78
2023/12/11 05:51:14;;;;;;;17.67;2.60;;;9.80;87.10;;;;;;5049422;28;20085;-78
2023/12/11 05:53:42;;;;;;;19.63;2.97;;;9.80;86.90;;;;;;5065113;28;20053;-78
2023/12/11 05:56:10;;;;;;;25.40;3.67;;;9.70;87.00;;;;;;5049545;28;20064;-78
2023/12/11 05:58:35;;;;;;;23.13;3.30;;;9.70;87.20;;;;;;5052807;28;20548;-78
2023/12/11 06:01:02;;;;;;;24.35;3.55;;;9.70;87.20;;;;;;5068114;28;20279;-78
2023/12/11 06:03:29;;;;;;;22.55;2.85;;;9.70;87.30;;;;;;5070059;28;20143;-78
2023/12/11 06:05:58;;;;;;;19.55;2.58;;;9.70;87.40;;;;;;5068728;28;20049;-78
2023/12/11 06:08:26;;;;;;;19.63;3.03;;;9.70;87.40;;;;;;5069950;28;20056;-78
2023/12/11 06:10:54;;;;;;;20.65;2.75;;;9.70;87.40;;;;;;5069875;28;20252;-78
2023/12/11 06:13:36;;;;;;;22.60;3.13;;;9.70;87.50;;;;;;5070998;28;20193;-78
2023/12/11 06:16:04;;;;;;;21.50;3.55;;;9.80;87.40;;;;;;5069562;28;20049;-78
2023/12/11 06:18:31;;;;;;;19.67;3.10;;;9.80;87.30;;;;;;5069542;28;20057;-78
2023/12/11 06:20:58;;;;;;;25.07;3.03;;;9.80;87.30;;;;;;5070252;28;20498;-78
2023/12/11 06:23:25;;;;;;;19.50;3.50;;;9.80;87.20;;;;;;5067949;28;20253;-78
2023/12/11 06:25:54;;;;;;;28.02;4.18;;;9.80;87.40;;;;;;5068006;28;20462;-78
2023/12/11 06:28:20;;;;;;;18.98;2.97;;;9.80;87.50;;;;;;5069515;28;20646;-78
2023/12/11 06:30:47;;;;;;;25.40;3.70;;;9.80;87.50;;;;;;5069697;28;20418;-78
2023/12/11 06:33:15;;;;;;;18.47;3.13;;;9.80;87.50;;;;;;5068255;28;20075;-78
2023/12/11 06:35:42;;;;;;;21.75;3.75;;;9.80;87.50;;;;;;5068625;28;20653;-79
2023/12/11 06:38:08;;;;;;;23.67;3.13;;;9.80;87.50;;;;;;5057801;28;20054;-79
2023/12/11 06:40:35;;;;;;;22.52;3.75;;;9.80;87.50;;;;;;5040482;28;20550;-78
2023/12/11 06:43:05;;;;;;;13.23;2.40;;;9.80;87.50;;;;;;5054001;28;20045;-79
2023/12/11 06:45:32;;;;;;;27.17;3.47;;;9.80;87.30;;;;;;5074858;28;20056;-78
2023/12/11 06:47:59;;;;;;;21.67;3.33;;;9.80;87.20;;;;;;5068335;28;20268;-79
2023/12/11 06:50:26;;;;;;;23.35;3.42;;;9.80;87.20;;;;;;5058505;28;20053;-79
2023/12/11 06:52:53;;;;;;;24.05;3.83;;;9.90;86.80;;;;;;5065485;28;20101;-78
2023/12/11 06:55:19;;;;;;;27.85;3.92;;;9.90;86.70;;;;;;5067297;28;20041;-78
2023/12/11 06:57:46;;;;;;;23.80;3.33;;;9.90;86.60;;;;;;5066683;28;20060;-78
2023/12/11 07:00:15;;;;;;;27.85;3.97;;;9.90;86.70;;;;;;5065933;28;20255;-79
2023/12/11 07:02:42;;;;;;;24.48;3.40;;;9.90;86.70;;;;;;5068712;28;20918;-78
2023/12/11 07:05:09;;;;;;;21.00;2.80;;;9.80;86.70;;;;;;5068627;28;20049;-79
2023/12/11 07:07:39;;;;;;;23.13;4.10;;;9.90;86.60;;;;;;5067891;28;20053;-78
2023/12/11 07:10:31;;;;;;;31.23;4.03;;;9.90;86.70;;;;;;5065356;28;20136;-78
2023/12/11 07:12:58;;;;;;;25.63;3.30;;;9.90;86.80;;;;;;5066441;28;20296;-79
2023/12/11 07:15:26;;;;;;;24.15;3.50;;;9.80;86.90;;;;;;5068327;28;20481;-78
2023/12/11 07:17:53;;;;;;;16.30;2.15;;;9.80;87.10;;;;;;5068586;28;20061;-78
2023/12/11 07:20:20;;;;;;;17.52;2.70;;;9.80;87.20;;;;;;5067060;28;20049;-78
2023/12/11 07:22:47;;;;;;;23.20;3.30;;;9.80;87.30;;;;;;5066344;28;20573;-78
2023/12/11 07:25:14;;;;;;;24.88;3.40;;;9.80;87.40;;;;;;5067255;28;20259;-78
2023/12/11 07:27:42;;;;;;;21.35;3.15;;;9.80;87.20;;;;;;5068752;28;20103;-78
2023/12/11 07:30:11;;;;;;;18.50;2.80;;;9.80;87.30;;;;;;5050259;28;20056;-78
2023/12/11 07:32:41;;;;;;;20.98;3.75;;;9.80;87.50;;;;;;5067041;28;20052;-78
2023/12/11 07:35:11;;;;;;;18.67;2.80;;;9.70;87.60;;;;;;5066694;28;20103;-78
2023/12/11 07:37:40;;;;;;;17.55;2.88;;;9.70;87.70;;;;;;5065568;28;20362;-78
2023/12/11 07:40:09;;;;;;;17.98;2.90;;;9.70;87.90;;;;;;5066721;28;20119;-78
2023/12/11 07:42:36;;;;;;;19.15;3.15;;;9.70;88.00;;;;;;5067911;28;20071;-78
2023/12/11 07:45:04;;;;;;;14.60;2.30;;;9.70;88.20;;;;;;5067045;28;20049;-78
2023/12/11 07:47:32;;;;;;;12.93;2.13;;;9.70;88.20;;;;;;5082361;28;20336;-78
2023/12/11 07:50:01;;;;;;;15.90;2.67;;;9.70;88.50;;;;;;5067353;28;20252;-78
2023/12/11 07:52:30;;;;;;;14.50;3.25;;;9.70;88.50;;;;;;5065490;28;20164;-76
2023/12/11 07:54:57;;;;;;;16.52;2.20;;;9.70;88.40;;;;;;5065709;28;20091;-77
2023/12/11 07:57:25;;;;;;;14.77;2.05;;;9.70;88.60;;;;;;5049052;28;20045;-78
2023/12/11 07:59:51;;;;;;;10.27;1.70;;;9.60;88.60;;;;;;5064025;28;20044;-78
2023/12/11 08:02:18;;;;;;;13.80;2.45;;;9.60;88.70;;;;;;5064903;28;20286;-79
2023/12/11 08:04:45;;;;;;;11.77;2.10;;;9.60;88.80;;;;;;5048689;28;20121;-79
2023/12/11 08:07:15;;;;;;;12.57;2.15;;;9.60;88.80;;;;;;5040451;28;20041;-77
2023/12/11 08:09:42;;;;;;;10.70;1.58;;;9.60;88.90;;;;;;5064262;28;20048;-76
2023/12/11 08:12:11;;;;;;;12.00;1.50;;;9.60;89.00;;;;;;5065254;28;20063;-77
2023/12/11 08:14:38;;;;;;;10.15;1.80;;;9.60;89.10;;;;;;5065905;28;20274;-76
2023/12/11 08:17:06;;;;;;;12.05;1.63;;;9.60;89.10;;;;;;5064662;28;20088;-77
2023/12/11 08:19:33;;;;;;;8.23;1.80;;;9.60;89.20;;;;;;5064320;28;20130;-76
2023/12/11 08:22:00;;;;;;;11.50;2.13;;;9.60;89.20;;;;;;5066545;28;20052;-76
2023/12/11 08:24:28;;;;;;;8.73;1.97;;;9.60;89.20;;;;;;5065774;28;20069;-77
2023/12/11 08:26:55;;;;;;;9.93;2.08;;;9.60;89.30;;;;;;5067447;28;20279;-77
2023/12/11 08:29:23;;;;;;;9.43;1.70;;;9.60;89.20;;;;;;5067301;28;20078;-77
2023/12/11 08:31:50;;;;;;;10.07;1.60;;;9.60;89.40;;;;;;5064860;28;20045;-76
2023/12/11 08:34:19;;;;;;;9.82;1.75;;;9.60;89.50;;;;;;5065095;28;20128;-76
2023/12/11 08:36:46;;;;;;;8.23;1.50;;;9.60;89.40;;;;;;5066326;28;20514;-76
2023/12/11 08:39:12;;;;;;;8.55;1.60;;;9.50;89.50;;;;;;5067082;28;20252;-76
2023/12/11 08:41:41;;;;;;;7.10;1.00;;;9.60;89.60;;;;;;5065991;28;20060;-76
2023/12/11 08:44:08;;;;;;;5.82;0.80;;;9.50;89.60;;;;;;5081800;28;20055;-76
2023/12/11 08:46:35;;;;;;;5.40;1.10;;;9.50;89.70;;;;;;5065684;28;20164;-76
2023/12/11 08:49:01;;;;;;;6.17;0.93;;;9.50;89.80;;;;;;5063025;28;20193;-76
2023/12/11 08:51:29;;;;;;;4.97;0.93;;;9.50;89.90;;;;;;5042238;28;20267;-78
2023/12/11 08:53:55;;;;;;;6.38;0.50;;;9.50;90.00;;;;;;5064890;28;20103;-78
2023/12/11 08:56:23;;;;;;;5.63;1.10;;;9.50;90.00;;;;;;5064437;28;20055;-78
2023/12/11 08:58:52;;;;;;;5.65;0.75;;;9.50;90.00;;;;;;5059203;28;20057;-77
2023/12/11 09:01:19;;;;;;;5.53;0.70;;;9.50;90.00;;;;;;5055722;28;20052;-78
2023/12/11 09:03:46;;;;;;;4.78;0.63;;;9.50;90.20;;;;;;5063371;28;20614;-75
2023/12/11 09:06:14;;;;;;;4.22;0.85;;;9.50;90.40;;;;;;5038262;28;20860;-75
2023/12/11 09:08:41;;;;;;;7.53;2.00;;;9.50;90.40;;;;;;5051082;28;20056;-77
2023/12/11 09:11:08;;;;;;;10.15;2.28;;;9.50;90.40;;;;;;5051767;28;20065;-76
2023/12/11 09:13:36;;;;;;;7.47;1.47;;;9.50;90.60;;;;;;5055435;28;20061;-77
2023/12/11 09:16:05;;;;;;;12.77;1.38;;;9.50;90.70;;;;;;5062121;28;20279;-77
2023/12/11 09:18:32;;;;;;;6.70;1.10;;;9.40;90.70;;;;;;5051355;28;20057;-77
2023/12/11 09:20:59;;;;;;;9.82;1.75;;;9.40;90.90;;;;;;5040332;28;20060;-77
2023/12/11 09:23:28;;;;;;;10.68;1.50;;;9.40;90.90;;;;;;5051403;28;20054;-75
2023/12/11 09:25:55;;;;;;;10.83;1.27;;;9.40;91.10;;;;;;5062480;28;20160;-78
2023/12/11 09:28:22;;;;;;;11.98;1.73;;;9.40;91.50;;;;;;5065368;28;20286;-79
2023/12/11 09:30:49;;;;;;;11.25;1.50;;;9.40;91.50;;;;;;5065230;28;21070;-78
2023/12/11 09:33:19;;;;;;;6.20;1.17;;;9.40;91.70;;;;;;5064846;28;20061;-78
2023/12/11 09:35:46;;;;;;;8.27;1.30;;;9.40;91.90;;;;;;5082421;28;20049;-78
2023/12/11 09:38:13;;;;;;;6.77;1.67;;;9.40;91.90;;;;;;5047711;28;20063;-78
2023/12/11 09:40:40;;;;;;;10.52;1.35;;;9.40;92.00;;;;;;5048148;28;20276;-76
2023/12/11 09:43:09;;;;;;;8.02;1.50;;;9.40;92.10;;;;;;5066326;28;20095;-78
2023/12/11 09:45:37;;;;;;;11.13;1.90;;;9.40;92.10;;;;;;5064700;28;20159;-77
2023/12/11 09:48:04;;;;;;;6.43;0.80;;;9.40;92.10;;;;;;5065895;28;20049;-76
2023/12/11 09:50:33;;;;;;;5.40;1.17;;;9.40;92.20;;;;;;5066517;28;20048;-77
2023/12/11 09:53:01;;;;;;;7.95;1.83;;;9.40;92.20;;;;;;5063262;28;20267;-77
2023/12/11 09:55:28;;;;;;;6.47;1.02;;;9.40;92.20;;;;;;5078232;28;20050;-77
2023/12/11 09:57:56;;;;;;;11.00;1.90;;;9.50;92.00;;;;;;5056337;28;20056;-78
2023/12/11 10:00:24;;;;;;;4.95;0.88;;;9.50;91.80;;;;;;5057780;28;20065;-77
2023/12/11 10:02:52;;;;;;;7.30;1.30;;;9.40;91.80;;;;;;5054551;28;20056;-77
2023/12/11 10:05:26;;;;;;;5.95;1.20;;;9.40;91.90;;;;;;5064704;28;20288;-78
2023/12/11 10:07:55;;;;;;;3.90;0.75;;;9.40;91.90;;;;;;5059588;28;20143;-78
2023/12/11 10:10:25;;;;;;;8.00;1.10;;;9.40;91.90;;;;;;5066935;28;20061;-78
2023/12/11 10:12:53;;;;;;;10.32;1.65;;;9.50;91.80;;;;;;5069445;28;20091;-78
2023/12/11 10:15:22;;;;;;;9.30;1.27;;;9.50;91.70;;;;;;5068376;28;20126;-78
2023/12/11 10:18:05;;;;;;;9.60;1.50;;;9.50;91.60;;;;;;5067883;28;20248;-79
2023/12/11 10:20:33;;;;;;;14.00;2.25;;;9.50;91.50;;;;;;5068244;28;20053;-79
2023/12/11 10:23:12;;;;;;;8.10;1.13;;;9.50;91.30;;;;;;5068951;28;20075;-78
2023/12/11 10:25:41;;;;;;;11.80;1.92;;;9.50;91.10;;;;;;5067072;28;20064;-79
2023/12/11 10:28:10;;;;;;;8.23;1.60;;;9.50;91.00;;;;;;5066810;28;20068;-78
2023/12/11 10:30:50;;;;;;;9.70;1.30;;;9.50;91.00;;;;;;5068499;28;20264;-78
2023/12/11 10:33:19;;;;;;;9.93;1.30;;;9.60;90.90;;;;;;5066691;28;20057;-78
2023/12/11 10:35:46;;;;;;;11.05;2.28;;;9.60;90.80;;;;;;5066574;28;20049;-78
2023/12/11 10:38:21;;;;;;;11.40;2.20;;;9.60;90.50;;;;;;5067151;28;20144;-78
2023/12/11 10:40:50;;;;;;;14.23;1.90;;;9.50;90.40;;;;;;5067017;28;20064;-78
2023/12/11 10:43:17;;;;;;;7.47;1.20;;;9.50;90.40;;;;;;5069417;28;20391;-79
2023/12/11 10:45:45;;;;;;;6.85;1.20;;;9.60;90.20;;;;;;5069743;28;20140;-78
2023/12/11 10:48:12;;;;;;;12.38;1.98;;;9.60;90.10;;;;;;5068433;28;20053;-78
2023/12/11 10:50:39;;;;;;;10.35;1.30;;;9.60;90.10;;;;;;5067913;28;20677;-78
2023/12/11 10:53:08;;;;;;;13.20;1.33;;;9.60;90.10;;;;;;5069186;28;20052;-79
2023/12/11 10:55:38;;;;;;;10.90;1.58;;;9.60;90.00;;;;;;5067568;28;20840;-78
2023/12/11 10:58:07;;;;;;;11.57;1.60;;;9.60;90.30;;;;;;5067755;28;20222;-78
2023/12/11 11:00:35;;;;;;;8.18;0.80;;;9.60;90.50;;;;;;5067564;28;20061;-79
2023/12/11 11:03:06;;;;;;;8.20;1.10;;;9.60;90.70;;;;;;5067466;28;20053;-79
2023/12/11 11:05:33;;;;;;;7.10;1.43;;;9.50;90.80;;;;;;5067828;28;20056;-79
2023/12/11 11:08:09;;;;;;;10.45;2.00;;;9.50;90.80;;;;;;5069002;28;20378;-78
2023/12/11 11:10:45;;;;;;;10.40;1.20;;;9.50;90.60;;;;;;5087701;28;20465;-78
2023/12/11 11:13:20;;;;;;;11.52;2.20;;;9.50;90.50;;;;;;5067134;28;20048;-78
2023/12/11 11:15:52;;;;;;;8.50;1.10;;;9.50;90.50;;;;;;5066705;28;20417;-78
2023/12/11 11:18:20;;;;;;;15.60;1.30;;;9.50;90.30;;;;;;5064510;28;20064;-79
2023/12/11 11:21:11;;;;;;;12.38;2.00;;;9.50;90.20;;;;;;5067143;28;20252;-79
2023/12/11 11:23:42;;;;;;;8.00;1.10;;;9.50;90.00;;;;;;5063791;28;20384;-79
2023/12/11 11:26:33;;;;;;;9.05;1.00;;;9.50;90.10;;;;;;5046844;28;20051;-79
2023/12/11 11:29:00;;;;;;;10.63;1.10;;;9.50;89.90;;;;;;5079368;28;20049;-79
2023/12/11 11:31:52;;;;;;;9.43;1.40;;;9.50;89.90;;;;;;5059667;28;20055;-79
2023/12/11 11:34:43;;;;;;;8.60;1.10;;;9.40;89.70;;;;;;5046108;28;20340;-79
2023/12/11 11:37:13;;;;;;;11.23;1.67;;;9.50;89.50;;;;;;5064510;28;20049;-79
2023/12/11 11:39:57;;;;;;;11.45;1.85;;;9.40;89.60;;;;;;5066170;28;20056;-81
2023/12/11 11:42:25;;;;;;;4.65;0.85;;;9.40;89.40;;;;;;5082187;28;20057;-80
2023/12/11 11:44:57;;;;;;;10.13;2.10;;;9.40;89.40;;;;;;5056183;28;20500;-81
2023/12/11 11:47:24;;;;;;;13.60;2.35;;;9.40;89.20;;;;;;5073446;28;20275;-80
2023/12/11 11:49:51;;;;;;;12.77;2.40;;;9.40;88.80;;;;;;5056268;28;20053;-82
2023/12/11 11:52:26;;;;;;;13.75;2.20;;;9.40;88.60;;;;;;5055102;28;20123;-80
2023/12/11 11:54:57;;;;;;;12.00;2.92;;;9.40;88.60;;;;;;5053288;28;20045;-84
2023/12/11 11:57:28;;;;;;;9.50;1.73;;;9.40;88.40;;;;;;5068050;28;20107;-77
2023/12/11 11:59:55;;;;;;;19.73;2.85;;;9.40;88.10;;;;;;5063322;28;20394;-81
2023/12/11 12:02:23;;;;;;;18.77;3.42;;;9.40;87.70;;;;;;5063324;28;20538;-78
2023/12/11 12:04:50;;;;;;;12.10;1.88;;;9.40;87.40;;;;;;5064174;28;20041;-78
2023/12/11 12:07:17;;;;;;;12.93;2.85;;;9.40;87.00;;;;;;5046183;28;20052;-79
2023/12/11 12:09:45;;;;;;;11.77;1.83;;;9.40;86.90;;;;;;5064053;28;20103;-83
2023/12/11 12:12:15;;;;;;;9.75;1.45;;;9.40;86.80;;;;;;5064270;28;20260;-83
2023/12/11 12:14:44;;;;;;;13.18;2.53;;;9.40;86.60;;;;;;5074113;28;20049;-81
2023/12/11 12:17:12;;;;;;;12.60;2.25;;;9.30;86.40;;;;;;5052266;28;20054;-80
2023/12/11 12:19:39;;;;;;;11.38;1.25;;;9.20;85.70;;;;;;5049109;28;20079;-80
2023/12/11 12:22:06;;;;;;;8.13;1.20;;;9.20;85.50;;;;;;5054162;28;20632;-80
2023/12/11 12:24:39;;;;;;;11.25;1.10;;;9.20;85.80;;;;;;5046919;28;20350;-80
2023/12/11 12:27:12;;;;;;;7.07;0.80;;;9.30;85.70;;;;;;5044184;28;20061;-81
2023/12/11 12:29:40;;;;;;;6.97;1.05;;;9.30;85.10;;;;;;5043535;28;20053;-80
2023/12/11 12:32:10;;;;;;;8.68;0.90;;;9.20;84.30;;;;;;5044487;28;20057;-81
2023/12/11 12:34:39;;;;;;;6.47;1.07;;;9.20;84.30;;;;;;5029176;28;20048;-80
2023/12/11 12:37:07;;;;;;;9.55;1.33;;;9.30;84.40;;;;;;5029332;28;20305;-80
2023/12/11 12:39:35;;;;;;;5.97;1.00;;;9.20;84.00;;;;;;5062224;28;20060;-81
2023/12/11 12:42:03;;;;;;;7.22;1.15;;;9.20;83.70;;;;;;5046880;28;20064;-80
2023/12/11 12:44:30;;;;;;;5.20;0.70;;;9.20;83.00;;;;;;5045260;28;20930;-81
2023/12/11 12:47:01;;;;;;;5.57;0.80;;;9.20;83.20;;;;;;5067044;28;20045;-81
2023/12/11 12:49:33;;;;;;;6.10;0.80;;;9.20;83.40;;;;;;5065523;28;20285;-80
2023/12/11 12:52:00;;;;;;;4.20;0.40;;;9.10;83.30;;;;;;5080648;28;20083;-80
2023/12/11 12:54:28;;;;;;;6.85;0.60;;;9.10;83.40;;;;;;5082783;28;20057;-80